Time,TemperatureF,DewpointF,PressureIn,WindDirection,WindDirectionDegrees,WindSpeedMPH,WindSpeedGustMPH,Humidity,HourlyPrecipIn,Conditions,Clouds,dailyrainin,SoftwareType,DateUTC
2013-03-25 00:00:00,70.3,68.5,29.76,WNW,295,0.0,0.0,94,0.00,,,0.00,WeatherTracker,2013-03-25 04:00:00,
2013-03-25 00:05:00,70.2,68.4,29.76,West,280,0.0,0.0,94,0.00,,,0.00,WeatherTracker,2013-03-25 04:05:00,
2013-03-25 00:10:00,70.0,68.2,29.76,West,280,0.0,0.0,94,0.00,,,0.00,WeatherTracker,2013-03-25 04:10:00,
2013-03-25 00:15:00,69.8,68.0,29.76,West,280,0.0,0.0,94,0.00,,,0.00,WeatherTracker,2013-03-25 04:15:00,
2013-03-25 00:20:00,69.7,67.9,29.76,West,280,0.0,0.0,94,0.00,,,0.00,WeatherTracker,2013-03-25 04:20:00,
2013-03-25 00:25:00,69.6,67.8,29.76,West,280,0.0,0.0,94,0.00,,,0.00,WeatherTracker,2013-03-25 04:25:00,
2013-03-25 00:30:00,69.4,67.6,29.76,West,280,0.0,0.0,94,0.00,,,0.00,WeatherTracker,2013-03-25 04:30:00,
2013-03-25 00:35:00,69.2,67.4,29.76,West,280,0.0,0.0,94,0.00,,,0.00,WeatherTracker,2013-03-25 04:35:00,
2013-03-25 00:40:00,69.0,67.2,29.76,West,280,0.0,0.0,94,0.00,,,0.00,WeatherTracker,2013-03-25 04:40:00,
2013-03-25 00:45:00,68.9,67.1,29.76,West,280,0.0,0.0,94,0.00,,,0.00,WeatherTracker,2013-03-25 04:45:00,
2013-03-25 00:50:00,68.7,66.9,29.76,West,280,0.0,0.0,94,0.00,,,0.00,WeatherTracker,2013-03-25 04:50:00,
2013-03-25 00:55:00,68.7,67.2,29.76,West,280,0.0,0.0,95,0.00,,,0.00,WeatherTracker,2013-03-25 04:55:00,
2013-03-25 01:00:00,68.7,67.2,29.77,West,270,4.0,0.0,95,0.00,,,0.00,WeatherTracker,2013-03-25 05:00:00,
2013-03-25 01:05:00,68.6,67.1,29.77,West,267,0.0,0.0,95,0.00,,,0.00,WeatherTracker,2013-03-25 05:05:00,
2013-03-25 01:10:00,68.6,67.1,29.76,West,271,0.0,0.0,95,0.00,,,0.00,WeatherTracker,2013-03-25 05:10:00,
2013-03-25 01:15:00,68.5,67.0,29.77,West,265,0.0,0.0,95,0.00,,,0.00,WeatherTracker,2013-03-25 05:15:00,
2013-03-25 01:20:00,68.5,67.0,29.77,WNW,285,0.0,0.0,95,0.00,,,0.00,WeatherTracker,2013-03-25 05:20:00,
2013-03-25 01:25:00,68.5,67.0,29.77,West,268,2.0,0.0,95,0.00,,,0.00,WeatherTracker,2013-03-25 05:25:00,
2013-03-25 01:30:00,68.5,67.0,29.77,West,262,0.0,0.0,95,0.00,,,0.00,WeatherTracker,2013-03-25 05:30:00,
2013-03-25 01:35:00,68.4,66.9,29.77,West,270,0.0,0.0,95,0.00,,,0.00,WeatherTracker,2013-03-25 05:35:00,
2013-03-25 01:40:00,68.3,66.8,29.77,West,269,0.0,0.0,95,0.00,,,0.00,WeatherTracker,2013-03-25 05:40:00,
2013-03-25 01:45:00,68.2,66.7,29.77,West,275,0.0,0.0,95,0.00,,,0.00,WeatherTracker,2013-03-25 05:45:00,
2013-03-25 01:50:00,68.1,66.6,29.77,WNW,289,1.0,0.0,95,0.00,,,0.00,WeatherTracker,2013-03-25 05:50:00,
2013-03-25 01:55:00,68.0,66.5,29.77,WNW,293,0.0,0.0,95,0.00,,,0.00,WeatherTracker,2013-03-25 05:55:00,
2013-03-25 02:01:00,67.9,66.4,29.77,NW,313,2.0,0.0,95,0.00,,,0.00,WeatherTracker,2013-03-25 06:01:00,
2013-03-25 02:06:00,67.8,66.3,29.77,West,271,4.0,0.0,95,0.00,,,0.00,WeatherTracker,2013-03-25 06:06:00,
2013-03-25 02:11:00,67.7,66.2,29.77,WNW,284,4.0,0.0,95,0.00,,,0.00,WeatherTracker,2013-03-25 06:11:00,
2013-03-25 02:16:00,67.6,66.1,29.77,WNW,295,1.0,0.0,95,0.00,,,0.00,WeatherTracker,2013-03-25 06:16:00,
2013-03-25 02:21:00,67.5,66.0,29.77,WNW,294,1.0,0.0,95,0.00,,,0.00,WeatherTracker,2013-03-25 06:21:00,
2013-03-25 02:26:00,67.4,65.9,29.77,West,272,0.0,0.0,95,0.00,,,0.00,WeatherTracker,2013-03-25 06:26:00,
2013-03-25 02:31:00,67.3,65.5,29.77,WNW,287,4.0,0.0,94,0.00,,,0.00,WeatherTracker,2013-03-25 06:31:00,
2013-03-25 02:36:00,67.2,65.4,29.77,WNW,283,0.0,0.0,94,0.00,,,0.00,WeatherTracker,2013-03-25 06:36:00,
2013-03-25 02:41:00,67.2,65.4,29.77,WNW,289,4.0,0.0,94,0.00,,,0.00,WeatherTracker,2013-03-25 06:41:00,
2013-03-25 02:46:00,67.2,65.4,29.77,WNW,290,1.0,0.0,94,0.00,,,0.00,WeatherTracker,2013-03-25 06:46:00,
2013-03-25 02:51:00,67.1,65.3,29.78,West,267,3.0,0.0,94,0.00,,,0.00,WeatherTracker,2013-03-25 06:51:00,
2013-03-25 02:56:00,67.2,65.4,29.78,WNW,294,2.0,0.0,94,0.00,,,0.00,WeatherTracker,2013-03-25 06:56:00,
2013-03-25 03:01:00,67.2,65.4,29.78,NW,309,1.0,0.0,94,0.00,,,0.00,WeatherTracker,2013-03-25 07:01:00,
2013-03-25 03:06:00,67.2,65.4,29.78,West,273,1.0,0.0,94,0.00,,,0.00,WeatherTracker,2013-03-25 07:06:00,
2013-03-25 03:11:00,67.2,65.4,29.78,West,261,2.0,0.0,94,0.00,,,0.00,WeatherTracker,2013-03-25 07:11:00,
2013-03-25 03:16:00,67.2,65.4,29.78,WNW,299,4.0,0.0,94,0.00,,,0.00,WeatherTracker,2013-03-25 07:16:00,
2013-03-25 03:21:00,67.2,65.1,29.78,WNW,296,2.0,0.0,93,0.00,,,0.00,WeatherTracker,2013-03-25 07:21:00,
2013-03-25 03:26:00,67.2,65.1,29.78,West,272,5.0,0.0,93,0.00,,,0.00,WeatherTracker,2013-03-25 07:26:00,
2013-03-25 03:31:00,67.2,65.1,29.78,WNW,295,7.0,0.0,93,0.00,,,0.00,WeatherTracker,2013-03-25 07:31:00,
2013-03-25 03:36:00,67.2,64.8,29.78,WNW,300,6.0,0.0,92,0.00,,,0.00,WeatherTracker,2013-03-25 07:36:00,
2013-03-25 03:41:00,67.3,64.9,29.78,West,271,7.0,0.0,92,0.00,,,0.00,WeatherTracker,2013-03-25 07:41:00,
2013-03-25 03:46:00,67.4,64.7,29.78,NW,310,6.0,0.0,91,0.00,,,0.00,WeatherTracker,2013-03-25 07:46:00,
2013-03-25 03:51:00,67.3,64.6,29.78,WNW,299,5.0,0.0,91,0.00,,,0.00,WeatherTracker,2013-03-25 07:51:00,
2013-03-25 03:56:00,67.4,64.7,29.78,West,269,9.0,0.0,91,0.00,,,0.00,WeatherTracker,2013-03-25 07:56:00,
2013-03-25 04:01:00,67.3,64.6,29.78,NW,304,4.0,0.0,91,0.00,,,0.00,WeatherTracker,2013-03-25 08:01:00,
2013-03-25 04:06:00,67.3,64.6,29.78,WNW,288,9.0,0.0,91,0.00,,,0.00,WeatherTracker,2013-03-25 08:06:00,
2013-03-25 04:11:00,67.2,64.5,29.78,NW,312,6.0,0.0,91,0.00,,,0.00,WeatherTracker,2013-03-25 08:11:00,
2013-03-25 04:16:00,67.2,64.5,29.78,West,275,5.0,0.0,91,0.00,,,0.00,WeatherTracker,2013-03-25 08:16:00,
2013-03-25 04:21:00,67.0,64.0,29.78,WNW,294,8.0,0.0,90,0.00,,,0.00,WeatherTracker,2013-03-25 08:21:00,
2013-03-25 04:26:00,66.8,63.8,29.79,NW,304,12.0,0.0,90,0.00,,,0.00,WeatherTracker,2013-03-25 08:26:00,
2013-03-25 04:31:00,66.7,63.7,29.78,NNW,346,3.0,0.0,90,0.00,,,0.00,WeatherTracker,2013-03-25 08:31:00,
2013-03-25 04:36:00,66.5,63.2,29.78,WNW,284,6.0,0.0,89,0.00,,,0.00,WeatherTracker,2013-03-25 08:36:00,
2013-03-25 04:41:00,66.3,63.3,29.79,NNW,342,5.0,0.0,90,0.00,,,0.00,WeatherTracker,2013-03-25 08:41:00,
2013-03-25 04:46:00,66.1,62.8,29.79,WNW,294,7.0,0.0,89,0.00,,,0.00,WeatherTracker,2013-03-25 08:46:00,
2013-03-25 04:51:00,65.9,62.6,29.79,NNW,327,5.0,0.0,89,0.00,,,0.00,WeatherTracker,2013-03-25 08:51:00,
2013-03-25 04:56:00,65.7,62.4,29.79,NW,304,4.0,0.0,89,0.00,,,0.00,WeatherTracker,2013-03-25 08:56:00,
2013-03-25 05:01:00,65.5,62.2,29.79,WNW,298,6.0,0.0,89,0.00,,,0.00,WeatherTracker,2013-03-25 09:01:00,
2013-03-25 05:06:00,65.3,61.0,29.79,WNW,302,11.0,0.0,86,0.00,,,0.00,WeatherTracker,2013-03-25 09:06:00,
2013-03-25 05:12:00,65.1,60.1,29.79,NW,319,5.0,0.0,84,0.00,,,0.00,WeatherTracker,2013-03-25 09:12:00,
2013-03-25 05:17:00,64.9,59.6,29.79,North,355,5.0,0.0,83,0.00,,,0.00,WeatherTracker,2013-03-25 09:17:00,
2013-03-25 05:22:00,64.7,58.7,29.79,WNW,291,6.0,0.0,81,0.00,,,0.00,WeatherTracker,2013-03-25 09:22:00,
2013-03-25 05:27:00,64.5,57.8,29.79,WNW,288,8.0,0.0,79,0.00,,,0.00,WeatherTracker,2013-03-25 09:27:00,
2013-03-25 05:32:00,64.4,57.7,29.79,NW,311,10.0,0.0,79,0.00,,,0.00,WeatherTracker,2013-03-25 09:32:00,
2013-03-25 05:37:00,64.3,57.6,29.79,WNW,303,8.0,0.0,79,0.00,,,0.00,WeatherTracker,2013-03-25 09:37:00,
2013-03-25 05:42:00,64.1,57.1,29.79,NW,310,6.0,0.0,78,0.00,,,0.00,WeatherTracker,2013-03-25 09:42:00,
2013-03-25 05:47:00,63.9,57.3,29.80,WNW,286,2.0,0.0,79,0.00,,,0.00,WeatherTracker,2013-03-25 09:47:00,
2013-03-25 05:52:00,63.8,57.2,29.79,NW,319,2.0,0.0,79,0.00,,,0.00,WeatherTracker,2013-03-25 09:52:00,
2013-03-25 05:57:00,63.7,57.1,29.80,NW,315,7.0,0.0,79,0.00,,,0.00,WeatherTracker,2013-03-25 09:57:00,
2013-03-25 06:02:00,63.6,57.0,29.80,WNW,290,3.0,0.0,79,0.00,,,0.00,WeatherTracker,2013-03-25 10:02:00,
2013-03-25 06:07:00,63.4,56.4,29.80,NNW,328,2.0,0.0,78,0.00,,,0.00,WeatherTracker,2013-03-25 10:07:00,
2013-03-25 06:12:00,63.3,56.3,29.80,WNW,298,2.0,0.0,78,0.00,,,0.00,WeatherTracker,2013-03-25 10:12:00,
2013-03-25 06:17:00,63.2,56.2,29.80,NW,315,8.0,0.0,78,0.00,,,0.00,WeatherTracker,2013-03-25 10:17:00,
2013-03-25 06:22:00,63.1,55.8,29.80,NW,313,5.0,0.0,77,0.00,,,0.00,WeatherTracker,2013-03-25 10:22:00,
2013-03-25 11:11:00,66.2,51.9,29.96,WNW,292,10.0,0.0,60,0.00,,,0.00,WeatherTracker,2013-03-25 15:11:00,
2013-03-25 11:16:00,66.5,52.2,29.96,North,349,5.0,0.0,60,0.00,,,0.00,WeatherTracker,2013-03-25 15:16:00,
2013-03-25 11:21:00,66.3,50.6,29.96,NW,308,12.0,0.0,57,0.00,,,0.00,WeatherTracker,2013-03-25 15:21:00,
2013-03-25 11:26:00,65.9,47.8,29.96,NW,305,10.0,0.0,52,0.00,,,0.00,WeatherTracker,2013-03-25 15:26:00,
2013-03-25 11:31:00,65.9,47.8,29.96,NNW,333,4.0,0.0,52,0.00,,,0.00,WeatherTracker,2013-03-25 15:31:00,
2013-03-25 11:36:00,66.3,50.1,29.97,NNW,336,8.0,0.0,56,0.00,,,0.00,WeatherTracker,2013-03-25 15:36:00,
2013-03-25 11:41:00,66.4,47.7,29.97,WNW,284,14.0,0.0,51,0.00,,,0.00,WeatherTracker,2013-03-25 15:41:00,
2013-03-25 11:46:00,66.0,48.9,29.96,North,9,7.0,0.0,54,0.00,,,0.00,WeatherTracker,2013-03-25 15:46:00,
2013-03-25 11:51:00,66.2,47.5,29.97,North,355,13.0,0.0,51,0.00,,,0.00,WeatherTracker,2013-03-25 15:51:00,
2013-03-25 11:56:00,65.8,47.7,29.97,North,5,6.0,0.0,52,0.00,,,0.00,WeatherTracker,2013-03-25 15:56:00,
2013-03-25 12:01:00,65.8,48.7,29.96,NW,322,7.0,0.0,54,0.00,,,0.00,WeatherTracker,2013-03-25 16:01:00,
2013-03-25 12:06:00,65.8,49.2,29.96,NW,313,8.0,0.0,55,0.00,,,0.00,WeatherTracker,2013-03-25 16:06:00,
2013-03-25 12:12:00,66.2,50.0,29.97,WNW,296,7.0,0.0,56,0.00,,,0.00,WeatherTracker,2013-03-25 16:12:00,
2013-03-25 12:17:00,66.5,48.8,29.97,NW,319,7.0,0.0,53,0.00,,,0.00,WeatherTracker,2013-03-25 16:17:00,
2013-03-25 12:21:00,66.5,49.3,29.97,North,350,7.0,0.0,54,0.00,,,0.00,WeatherTracker,2013-03-25 16:21:00,
2013-03-25 12:27:00,66.8,50.1,29.96,North,355,4.0,0.0,55,0.00,,,0.00,WeatherTracker,2013-03-25 16:27:00,
2013-03-25 12:32:00,67.1,50.9,29.97,WNW,292,8.0,0.0,56,0.00,,,0.00,WeatherTracker,2013-03-25 16:32:00,
2013-03-25 12:37:00,67.1,48.9,29.96,NW,308,9.0,0.0,52,0.00,,,0.00,WeatherTracker,2013-03-25 16:37:00,
2013-03-25 12:42:00,67.3,49.1,29.96,NNW,339,5.0,0.0,52,0.00,,,0.00,WeatherTracker,2013-03-25 16:42:00,
2013-03-25 12:47:00,66.7,49.0,29.96,NW,321,9.0,0.0,53,0.00,,,0.00,WeatherTracker,2013-03-25 16:47:00,
2013-03-25 12:52:00,66.8,49.1,29.96,WNW,284,9.0,0.0,53,0.00,,,0.00,WeatherTracker,2013-03-25 16:52:00,
2013-03-25 12:57:00,66.8,48.1,29.95,NNW,331,5.0,0.0,51,0.00,,,0.00,WeatherTracker,2013-03-25 16:57:00,
2013-03-25 13:02:00,67.2,49.0,29.96,NW,321,2.0,0.0,52,0.00,,,0.00,WeatherTracker,2013-03-25 17:02:00,
2013-03-25 13:07:00,67.6,48.8,29.95,NW,312,8.0,0.0,51,0.00,,,0.00,WeatherTracker,2013-03-25 17:07:00,
2013-03-25 13:12:00,67.8,47.4,29.95,NNE,16,10.0,0.0,48,0.00,,,0.00,WeatherTracker,2013-03-25 17:12:00,
2013-03-25 13:17:00,67.8,47.9,29.95,WNW,290,6.0,0.0,49,0.00,,,0.00,WeatherTracker,2013-03-25 17:17:00,
2013-03-25 13:22:00,67.7,47.8,29.95,NNW,346,4.0,0.0,49,0.00,,,0.00,WeatherTracker,2013-03-25 17:22:00,
2013-03-25 13:27:00,67.6,48.8,29.94,NNW,327,9.0,0.0,51,0.00,,,0.00,WeatherTracker,2013-03-25 17:27:00,
2013-03-25 13:32:00,67.9,50.1,29.94,WNW,286,10.0,0.0,53,0.00,,,0.00,WeatherTracker,2013-03-25 17:32:00,
2013-03-25 13:37:00,68.0,50.2,29.94,NNW,338,6.0,0.0,53,0.00,,,0.00,WeatherTracker,2013-03-25 17:37:00,
2013-03-25 13:42:00,68.2,50.4,29.94,NNW,328,8.0,0.0,53,0.00,,,0.00,WeatherTracker,2013-03-25 17:42:00,
2013-03-25 13:47:00,68.2,50.4,29.94,WNW,290,7.0,0.0,53,0.00,,,0.00,WeatherTracker,2013-03-25 17:47:00,
2013-03-25 13:52:00,68.1,50.3,29.94,NNW,334,13.0,0.0,53,0.00,,,0.00,WeatherTracker,2013-03-25 17:52:00,
2013-03-25 13:57:00,68.1,50.8,29.94,NW,311,11.0,0.0,54,0.00,,,0.00,WeatherTracker,2013-03-25 17:57:00,
2013-03-25 14:02:00,67.9,49.1,29.94,WNW,288,12.0,0.0,51,0.00,,,0.00,WeatherTracker,2013-03-25 18:02:00,
2013-03-25 14:07:00,67.5,49.2,29.94,NW,317,7.0,0.0,52,0.00,,,0.00,WeatherTracker,2013-03-25 18:07:00,
2013-03-25 14:12:00,67.4,49.7,29.94,NW,308,10.0,0.0,53,0.00,,,0.00,WeatherTracker,2013-03-25 18:12:00,
2013-03-25 14:17:00,67.2,50.0,29.94,NW,323,10.0,0.0,54,0.00,,,0.00,WeatherTracker,2013-03-25 18:17:00,
2013-03-25 14:22:00,67.1,48.9,29.94,NE,34,7.0,0.0,52,0.00,,,0.00,WeatherTracker,2013-03-25 18:22:00,
2013-03-25 14:27:00,67.1,49.4,29.94,WNW,294,10.0,0.0,53,0.00,,,0.00,WeatherTracker,2013-03-25 18:27:00,
2013-03-25 14:32:00,67.0,48.8,29.94,NW,312,7.0,0.0,52,0.00,,,0.00,WeatherTracker,2013-03-25 18:32:00,
2013-03-25 14:37:00,66.9,48.7,29.94,NW,307,6.0,0.0,52,0.00,,,0.00,WeatherTracker,2013-03-25 18:37:00,
2013-03-25 14:42:00,66.6,48.4,29.94,NW,304,9.0,0.0,52,0.00,,,0.00,WeatherTracker,2013-03-25 18:42:00,
2013-03-25 14:47:00,66.6,48.4,29.93,North,9,9.0,0.0,52,0.00,,,0.00,WeatherTracker,2013-03-25 18:47:00,
2013-03-25 14:52:00,66.7,47.5,29.93,WNW,300,8.0,0.0,50,0.00,,,0.00,WeatherTracker,2013-03-25 18:52:00,
2013-03-25 14:58:00,66.7,46.4,29.94,WNW,295,6.0,0.0,48,0.00,,,0.00,WeatherTracker,2013-03-25 18:58:00,
2013-03-25 15:03:00,66.7,46.9,29.94,WNW,288,10.0,0.0,49,0.00,,,0.00,WeatherTracker,2013-03-25 19:03:00,
2013-03-25 15:08:00,66.6,46.8,29.94,NNW,336,8.0,0.0,49,0.00,,,0.00,WeatherTracker,2013-03-25 19:08:00,
2013-03-25 15:13:00,66.5,47.3,29.94,WNW,288,15.0,0.0,50,0.00,,,0.00,WeatherTracker,2013-03-25 19:13:00,
2013-03-25 15:18:00,66.3,45.5,29.94,WNW,288,6.0,0.0,47,0.00,,,0.00,WeatherTracker,2013-03-25 19:18:00,
2013-03-25 15:23:00,66.1,46.9,29.94,WNW,290,11.0,0.0,50,0.00,,,0.00,WeatherTracker,2013-03-25 19:23:00,
2013-03-25 15:28:00,66.2,45.4,29.94,NW,315,5.0,0.0,47,0.00,,,0.00,WeatherTracker,2013-03-25 19:28:00,
2013-03-25 15:33:00,66.0,44.0,29.94,NW,313,7.0,0.0,45,0.00,,,0.00,WeatherTracker,2013-03-25 19:33:00,
2013-03-25 15:38:00,65.7,43.2,29.95,NW,307,10.0,0.0,44,0.00,,,0.00,WeatherTracker,2013-03-25 19:38:00,
2013-03-25 15:43:00,65.7,46.0,29.94,NW,325,5.0,0.0,49,0.00,,,0.00,WeatherTracker,2013-03-25 19:43:00,
2013-03-25 15:48:00,65.7,44.3,29.94,WNW,285,10.0,0.0,46,0.00,,,0.00,WeatherTracker,2013-03-25 19:48:00,
2013-03-25 21:21:00,57.0,44.5,30.03,NNW,336,0.0,0.0,63,0.00,,,0.00,WeatherTracker,2013-03-26 01:21:00,
2013-03-25 21:26:00,56.9,44.8,30.03,NNW,328,0.0,0.0,64,0.00,,,0.00,WeatherTracker,2013-03-26 01:26:00,
2013-03-25 21:31:00,56.8,44.8,30.04,WNW,298,0.0,0.0,64,0.00,,,0.00,WeatherTracker,2013-03-26 01:31:00,
2013-03-25 21:36:00,56.7,44.7,30.04,WNW,298,2.0,0.0,64,0.00,,,0.00,WeatherTracker,2013-03-26 01:36:00,
2013-03-25 21:41:00,56.6,45.0,30.04,WNW,298,0.0,0.0,65,0.00,,,0.00,WeatherTracker,2013-03-26 01:41:00,
2013-03-25 21:46:00,56.5,44.9,30.04,NW,304,0.0,0.0,65,0.00,,,0.00,WeatherTracker,2013-03-26 01:46:00,
2013-03-25 21:51:00,56.4,45.2,30.04,NW,304,0.0,0.0,66,0.00,,,0.00,WeatherTracker,2013-03-26 01:51:00,
2013-03-25 21:56:00,56.3,44.7,30.04,NW,304,0.0,0.0,65,0.00,,,0.00,WeatherTracker,2013-03-26 01:56:00,
2013-03-25 22:01:00,56.2,45.4,30.04,NW,304,0.0,0.0,67,0.00,,,0.00,WeatherTracker,2013-03-26 02:01:00,
2013-03-25 22:06:00,56.0,45.2,30.04,NW,312,0.0,0.0,67,0.00,,,0.00,WeatherTracker,2013-03-26 02:06:00,
2013-03-25 22:11:00,55.9,45.5,30.04,NW,312,0.0,0.0,68,0.00,,,0.00,WeatherTracker,2013-03-26 02:11:00,
2013-03-25 22:16:00,55.7,45.7,30.04,NW,312,0.0,0.0,69,0.00,,,0.00,WeatherTracker,2013-03-26 02:16:00,
2013-03-25 22:21:00,55.4,45.4,30.04,NW,312,1.0,0.0,69,0.00,,,0.00,WeatherTracker,2013-03-26 02:21:00,
2013-03-25 22:26:00,55.2,45.2,30.04,NW,305,0.0,0.0,69,0.00,,,0.00,WeatherTracker,2013-03-26 02:26:00,
2013-03-25 22:31:00,55.2,45.6,30.04,NW,305,0.0,0.0,70,0.00,,,0.00,WeatherTracker,2013-03-26 02:31:00,
2013-03-25 22:36:00,55.1,45.5,30.04,NW,305,0.0,0.0,70,0.00,,,0.00,WeatherTracker,2013-03-26 02:36:00,
2013-03-25 22:41:00,55.0,45.8,30.04,WNW,298,0.0,0.0,71,0.00,,,0.00,WeatherTracker,2013-03-26 02:41:00,
2013-03-25 22:46:00,54.9,45.3,30.05,WNW,301,0.0,0.0,70,0.00,,,0.00,WeatherTracker,2013-03-26 02:46:00,
2013-03-25 22:51:00,54.9,45.3,30.05,WNW,300,0.0,0.0,70,0.00,,,0.00,WeatherTracker,2013-03-26 02:51:00,
2013-03-25 22:57:00,54.9,45.3,30.05,NW,304,0.0,0.0,70,0.00,,,0.00,WeatherTracker,2013-03-26 02:57:00,
2013-03-25 23:02:00,55.0,45.4,30.05,WNW,290,1.0,0.0,70,0.00,,,0.00,WeatherTracker,2013-03-26 03:02:00,
2013-03-25 23:07:00,55.2,45.6,30.05,WNW,282,1.0,0.0,70,0.00,,,0.00,WeatherTracker,2013-03-26 03:07:00,
2013-03-25 23:12:00,55.3,45.7,30.05,WNW,286,0.0,0.0,70,0.00,,,0.00,WeatherTracker,2013-03-26 03:12:00,
2013-03-25 23:17:00,55.3,45.7,30.06,WNW,288,0.0,0.0,70,0.00,,,0.00,WeatherTracker,2013-03-26 03:17:00,
2013-03-25 23:22:00,55.3,45.7,30.06,WNW,288,1.0,0.0,70,0.00,,,0.00,WeatherTracker,2013-03-26 03:22:00,
2013-03-25 23:27:00,55.3,46.1,30.06,NW,308,1.0,0.0,71,0.00,,,0.00,WeatherTracker,2013-03-26 03:27:00,
2013-03-25 23:32:00,55.4,46.2,30.06,North,355,0.0,0.0,71,0.00,,,0.00,WeatherTracker,2013-03-26 03:32:00,
2013-03-25 23:37:00,55.5,46.3,30.06,WNW,288,2.0,0.0,71,0.00,,,0.00,WeatherTracker,2013-03-26 03:37:00,
2013-03-25 23:42:00,55.7,46.4,30.06,WNW,302,0.0,0.0,71,0.00,,,0.00,WeatherTracker,2013-03-26 03:42:00,
2013-03-25 23:47:00,55.9,46.6,30.06,WNW,294,2.0,0.0,71,0.00,,,0.00,WeatherTracker,2013-03-26 03:47:00,
2013-03-25 23:52:00,56.0,46.7,30.06,WNW,293,1.0,0.0,71,0.00,,,0.00,WeatherTracker,2013-03-26 03:52:00,
2013-03-25 23:57:00,56.1,46.8,30.06,WNW,286,4.0,0.0,71,0.00,,,0.00,WeatherTracker,2013-03-26 03:57:00,